createdAt,value
2017-04-07T00:03:36.367Z,39.70
2017-04-07T00:04:34.564Z,39.70
2017-04-07T00:07:29.976Z,39.70
2017-04-07T00:09:27.067Z,39.70
2017-04-07T00:10:26.027Z,39.20
2017-04-07T00:11:25.108Z,40.10
2017-04-07T00:13:21.924Z,39.60
2017-04-07T00:15:19.081Z,39.60
2017-04-07T00:16:17.392Z,39.60
2017-04-07T00:17:15.609Z,39.20
2017-04-07T00:18:14.245Z,39.60
2017-04-07T00:19:12.445Z,39.60
2017-04-07T00:20:10.640Z,39.70
2017-04-07T00:23:07.051Z,39.20
2017-04-07T00:24:05.896Z,39.20
2017-04-07T00:26:02.649Z,39.60
2017-04-07T00:27:00.839Z,39.60
2017-04-07T00:28:58.441Z,39.20
2017-04-07T00:29:56.627Z,40.00
2017-04-07T00:30:55.472Z,39.60
2017-04-07T00:31:54.404Z,39.20
2017-04-07T00:32:53.126Z,40.10
2017-04-07T00:33:51.725Z,39.20
2017-04-07T00:34:49.944Z,39.50
2017-04-07T00:40:41.713Z,39.50
2017-04-07T00:42:39.596Z,39.10
2017-04-07T00:43:37.793Z,39.50
2017-04-07T00:44:36.028Z,39.50
2017-04-07T00:45:34.600Z,39.20
2017-04-07T00:46:33.417Z,39.10
2017-04-07T00:47:31.643Z,39.50
2017-04-07T00:48:30.203Z,39.20
2017-04-07T00:49:28.589Z,39.20
2017-04-07T00:50:26.778Z,39.50
2017-04-07T00:51:24.967Z,39.50
2017-04-07T00:52:23.573Z,39.10
2017-04-07T00:53:22.503Z,39.50
2017-04-07T00:54:20.695Z,39.50
2017-04-07T00:55:18.887Z,39.50
2017-04-07T00:56:17.833Z,39.50
2017-04-07T00:57:16.055Z,39.10
2017-04-07T00:58:14.279Z,39.50
2017-04-07T00:59:12.506Z,39.50
2017-04-07T01:00:10.700Z,39.50
2017-04-07T01:01:09.327Z,39.10
2017-04-07T01:04:04.747Z,39.50
2017-04-07T01:05:03.697Z,39.10
2017-04-07T01:07:00.135Z,39.10
2017-04-07T01:07:59.132Z,39.50
2017-04-07T01:08:57.700Z,39.10
2017-04-07T01:09:56.553Z,39.00
2017-04-07T01:10:54.751Z,39.50
2017-04-07T01:12:51.648Z,39.50
2017-04-07T01:13:49.848Z,39.50
2017-04-07T01:14:48.854Z,39.50
2017-04-07T01:15:46.728Z,39.10
2017-04-07T01:16:44.937Z,39.40
2017-04-07T01:17:43.503Z,39.00
2017-04-07T01:18:41.700Z,39.50
2017-04-07T01:20:38.484Z,39.50
2017-04-07T01:21:36.719Z,39.50
2017-04-07T01:22:34.984Z,39.10
2017-04-07T01:23:33.188Z,39.50
2017-04-07T01:25:30.220Z,39.50
2017-04-07T01:26:28.764Z,39.40
2017-04-07T01:28:26.061Z,39.40
2017-04-07T01:29:24.261Z,39.40
2017-04-07T01:30:23.196Z,39.50
2017-04-07T01:31:22.393Z,39.10
2017-04-07T01:32:20.583Z,39.40
2017-04-07T01:33:19.619Z,39.40
2017-04-07T01:34:17.829Z,39.40
2017-04-07T01:36:15.395Z,39.00
2017-04-07T01:39:10.437Z,38.90
2017-04-07T01:40:09.380Z,38.90
2017-04-07T01:43:04.763Z,39.40
2017-04-07T01:45:01.581Z,38.90
2017-04-07T01:46:58.067Z,38.90
2017-04-07T01:47:57.005Z,39.30
2017-04-07T01:49:53.861Z,39.00
2017-04-07T01:50:52.361Z,39.40
2017-04-07T01:51:50.395Z,39.00
2017-04-07T01:52:49.191Z,39.10
2017-04-07T01:53:47.015Z,39.00
2017-04-07T01:54:45.228Z,39.40
2017-04-07T01:56:42.784Z,39.00
2017-04-07T01:57:41.715Z,39.40
2017-04-07T01:58:39.911Z,39.40
2017-04-07T02:00:36.677Z,39.40
2017-04-07T02:01:34.516Z,39.10
2017-04-07T02:02:33.623Z,39.50
2017-04-07T02:05:28.617Z,39.10
2017-04-07T02:06:28.047Z,39.50
2017-04-07T02:07:26.239Z,39.40
2017-04-07T02:09:23.083Z,39.40
2017-04-07T02:10:21.345Z,39.40
2017-04-07T02:11:19.569Z,39.50
2017-04-07T02:12:17.760Z,39.50
2017-04-07T02:14:15.380Z,39.00
2017-04-07T02:16:12.180Z,39.50
2017-04-07T02:17:10.581Z,39.10
2017-04-07T02:19:07.384Z,39.50
2017-04-07T02:21:03.816Z,39.10
2017-04-07T02:22:02.013Z,39.50
2017-04-07T02:23:58.867Z,39.40
2017-04-07T02:24:57.431Z,39.00
2017-04-07T02:26:54.944Z,39.00
2017-04-07T02:27:53.143Z,39.40
2017-04-07T02:28:52.137Z,39.40
2017-04-07T02:29:51.136Z,39.40
2017-04-07T02:30:49.334Z,39.50
2017-04-07T02:31:48.291Z,39.00
2017-04-07T02:33:45.233Z,39.40
2017-04-07T02:35:42.108Z,39.00
2017-04-07T02:36:40.307Z,39.10
2017-04-07T02:38:37.823Z,39.40
2017-04-07T02:39:36.756Z,39.00
2017-04-07T02:40:34.619Z,39.00
2017-04-07T02:41:32.817Z,39.40
2017-04-07T02:42:31.021Z,39.40
2017-04-07T02:43:29.624Z,39.00
2017-04-07T02:44:27.815Z,39.40
2017-04-07T02:46:24.675Z,39.40
2017-04-07T02:47:22.867Z,39.00
2017-04-07T02:48:21.907Z,39.40
2017-04-07T02:49:19.759Z,39.00
2017-04-07T02:50:18.696Z,39.00
2017-04-07T02:52:15.499Z,39.40
2017-04-07T02:53:13.699Z,39.50
2017-04-07T02:55:10.540Z,39.40
2017-04-07T02:56:09.557Z,38.90
2017-04-07T02:57:08.501Z,39.00
2017-04-07T02:58:06.395Z,39.00
2017-04-07T02:59:04.652Z,39.40
2017-04-07T03:01:03.509Z,39.00
2017-04-07T03:02:01.708Z,39.40
2017-04-07T03:02:59.900Z,39.00
2017-04-07T03:03:58.844Z,39.00
2017-04-07T03:04:57.800Z,39.40
2017-04-07T03:05:56.360Z,39.00
2017-04-07T03:08:51.772Z,39.40
2017-04-07T03:09:49.984Z,39.40
2017-04-07T03:10:48.368Z,39.10
2017-04-07T03:11:46.201Z,39.10
2017-04-07T03:12:45.209Z,39.50
2017-04-07T03:14:42.015Z,39.40
2017-04-07T03:15:40.960Z,39.40
2017-04-07T03:16:39.718Z,39.40
2017-04-07T03:18:36.249Z,39.00
2017-04-07T03:19:34.451Z,39.40
2017-04-07T03:20:32.656Z,39.40
2017-04-07T03:21:30.854Z,39.40
2017-04-07T03:22:28.783Z,39.10
2017-04-07T03:23:27.721Z,39.00
2017-04-07T03:24:25.950Z,39.40
2017-04-07T03:26:23.124Z,39.00
2017-04-07T03:27:21.592Z,39.40
2017-04-07T03:28:19.795Z,39.40
2017-04-07T03:30:17.597Z,39.40
2017-04-07T03:31:15.797Z,39.40
2017-04-07T03:32:13.999Z,40.00
2017-04-07T03:33:12.945Z,39.00
2017-04-07T03:34:11.152Z,39.40
2017-04-07T03:37:06.629Z,39.00
2017-04-07T03:38:05.413Z,38.90
2017-04-07T03:39:04.393Z,39.00
2017-04-07T03:41:59.815Z,39.00
2017-04-07T03:43:56.267Z,39.10
2017-04-07T03:44:55.213Z,39.40
2017-04-07T03:45:53.416Z,39.00
2017-04-07T03:46:50.853Z,38.90
2017-04-07T03:47:49.889Z,38.90
2017-04-07T03:48:48.128Z,39.30
2017-04-07T03:51:43.571Z,39.00
2017-04-07T03:52:41.776Z,39.40
2017-04-07T03:53:40.739Z,39.40
2017-04-07T03:54:38.945Z,39.40
2017-04-07T03:55:37.521Z,39.00
2017-04-07T03:56:35.785Z,39.40
2017-04-07T03:58:32.575Z,39.40
2017-04-07T04:00:29.684Z,39.40
2017-04-07T04:01:27.887Z,39.40
2017-04-07T04:02:26.079Z,39.40
2017-04-07T04:03:25.093Z,39.00
2017-04-07T04:04:22.949Z,39.00
2017-04-07T04:05:20.837Z,39.00
2017-04-07T04:06:19.796Z,39.00
2017-04-07T04:08:16.314Z,39.00
2017-04-07T04:09:14.887Z,39.00
2017-04-07T04:10:13.128Z,39.50
2017-04-07T04:12:09.577Z,38.90
2017-04-07T04:13:08.520Z,39.00
2017-04-07T04:14:06.741Z,39.40
2017-04-07T04:15:04.984Z,39.40
2017-04-07T04:16:03.935Z,39.40
2017-04-07T04:17:02.162Z,39.40
2017-04-07T04:18:59.681Z,39.20
2017-04-07T04:19:58.253Z,39.10
2017-04-07T04:20:56.879Z,39.20
2017-04-07T04:21:55.116Z,39.50
2017-04-07T04:22:52.977Z,39.10
2017-04-07T04:23:51.568Z,39.20
2017-04-07T04:24:49.764Z,39.60
2017-04-07T04:25:48.329Z,39.20
2017-04-07T04:26:46.925Z,39.30
2017-04-07T04:28:43.775Z,39.70
2017-04-07T04:29:42.597Z,39.30
2017-04-07T04:30:41.578Z,39.30
2017-04-07T04:31:39.429Z,39.30
2017-04-07T04:32:37.251Z,39.40
2017-04-07T04:33:36.200Z,39.40
2017-04-07T04:34:34.424Z,39.40
2017-04-07T04:36:31.276Z,39.40
2017-04-07T04:37:29.473Z,39.80
2017-04-07T04:38:28.437Z,39.40
2017-04-07T04:39:26.628Z,39.80
2017-04-07T04:40:24.873Z,39.80
2017-04-07T04:41:22.707Z,39.40
2017-04-07T04:42:20.901Z,39.90
2017-04-07T04:43:19.130Z,39.40
2017-04-07T04:44:17.326Z,39.80
2017-04-07T04:45:15.524Z,39.80
2017-04-07T04:47:12.681Z,39.20
2017-04-07T04:49:09.443Z,39.20
2017-04-07T04:51:06.237Z,39.20
2017-04-07T04:52:04.580Z,39.30
2017-04-07T04:53:02.767Z,39.70
2017-04-07T04:54:00.963Z,39.70
2017-04-07T04:57:55.127Z,39.60
2017-04-07T04:59:51.963Z,39.90
2017-04-07T05:00:50.184Z,39.90
2017-04-07T05:01:49.129Z,39.50
2017-04-07T05:03:46.257Z,39.90
2017-04-07T05:05:42.732Z,39.50
2017-04-07T05:06:40.776Z,39.50
2017-04-07T05:07:39.717Z,39.90
2017-04-07T05:09:36.651Z,39.30
2017-04-07T05:10:34.842Z,39.80
2017-04-07T05:11:33.036Z,39.80
2017-04-07T05:12:31.968Z,39.80
2017-04-07T05:13:30.203Z,39.30
2017-04-07T05:14:28.445Z,39.70
2017-04-07T05:17:24.152Z,39.20
2017-04-07T05:18:22.724Z,39.20
2017-04-07T05:19:20.548Z,39.20
2017-04-07T05:20:19.091Z,39.60
2017-04-07T05:21:18.053Z,39.10
2017-04-07T05:22:17.316Z,39.20
2017-04-07T05:23:15.536Z,39.50
2017-04-07T05:24:13.832Z,39.50
2017-04-07T05:25:12.396Z,39.50
2017-04-07T05:26:11.327Z,39.00
2017-04-07T05:27:10.295Z,39.10
2017-04-07T05:29:07.129Z,39.40
2017-04-07T05:30:05.340Z,39.40
2017-04-07T05:32:02.843Z,39.00
2017-04-07T05:33:59.663Z,39.50
2017-04-07T05:34:57.907Z,39.10
2017-04-07T05:36:55.312Z,39.40
2017-04-07T05:38:55.097Z,39.00
2017-04-07T05:40:58.663Z,39.20
2017-04-07T05:42:00.931Z,39.70
2017-04-07T05:43:15.540Z,39.40
2017-04-07T05:44:13.878Z,39.90
2017-04-07T05:45:12.075Z,39.40
2017-04-07T05:47:08.525Z,39.80
2017-04-07T05:48:07.472Z,39.90
2017-04-07T05:49:06.045Z,40.10
2017-04-07T05:50:04.635Z,39.60
2017-04-07T05:53:00.068Z,39.90
2017-04-07T05:53:59.013Z,39.80
2017-04-07T05:54:57.237Z,40.50
2017-04-07T05:55:56.209Z,39.90
2017-04-07T05:57:52.991Z,40.10
2017-04-07T05:58:51.561Z,40.10
2017-04-07T05:59:49.773Z,40.50
2017-04-07T06:01:46.673Z,40.40
2017-04-07T06:02:44.877Z,40.50
2017-04-07T06:05:40.425Z,40.60
2017-04-07T06:06:38.619Z,40.50
2017-04-07T06:07:36.876Z,40.40
2017-04-07T06:08:36.084Z,39.80
2017-04-07T06:11:31.574Z,39.80
2017-04-07T06:12:29.767Z,39.10
2017-04-07T06:13:28.005Z,39.60
2017-04-07T06:14:26.957Z,38.90
2017-04-07T06:15:25.160Z,39.50
2017-04-07T06:16:23.636Z,39.00
2017-04-07T06:17:21.829Z,39.10
2017-04-07T06:18:20.131Z,39.20
2017-04-07T06:19:19.100Z,38.20
2017-04-07T06:20:18.095Z,38.70
2017-04-07T06:21:16.297Z,38.20
2017-04-07T06:22:15.257Z,38.00
2017-04-07T06:23:14.205Z,37.50
2017-04-07T06:24:13.144Z,38.40
2017-04-07T06:27:08.310Z,37.80
2017-04-07T06:28:06.144Z,37.80
2017-04-07T06:30:03.217Z,37.90
2017-04-07T06:31:01.821Z,37.80
2017-04-07T06:32:58.683Z,38.50
2017-04-07T06:33:56.880Z,38.60
2017-04-07T06:34:54.764Z,38.10
2017-04-07T06:35:53.328Z,38.10
2017-04-07T06:36:51.555Z,38.70
2017-04-07T06:37:49.905Z,38.70
2017-04-07T06:38:49.091Z,38.20
2017-04-07T06:39:47.296Z,38.60
2017-04-07T06:40:46.365Z,38.20
2017-04-07T06:41:44.559Z,38.60
2017-04-07T06:42:43.165Z,38.20
2017-04-07T06:43:41.361Z,38.70
2017-04-07T06:44:39.561Z,38.80
2017-04-07T06:46:36.309Z,38.80
2017-04-07T06:47:34.585Z,38.70
2017-04-07T06:48:32.891Z,38.90
2017-04-07T06:49:31.596Z,38.90
2017-04-07T06:52:27.076Z,38.80
2017-04-07T06:53:26.021Z,38.30
2017-04-07T06:54:24.315Z,38.80
2017-04-07T06:55:22.513Z,38.40
2017-04-07T06:56:20.717Z,38.80
2017-04-07T06:58:18.229Z,38.90
2017-04-07T06:59:16.419Z,38.90
2017-04-07T07:00:15.401Z,39.10
2017-04-07T07:01:14.331Z,39.10
2017-04-07T07:02:12.899Z,38.70
2017-04-07T07:03:11.847Z,38.70
2017-04-07T07:04:10.787Z,38.80
2017-04-07T07:05:08.981Z,39.00
2017-04-07T07:06:08.012Z,38.70
2017-04-07T07:07:06.961Z,38.70
2017-04-07T07:08:05.901Z,39.00
2017-04-07T07:09:04.144Z,38.90
2017-04-07T07:11:59.916Z,38.20
2017-04-07T07:12:58.123Z,38.10
2017-04-07T07:13:55.943Z,38.10
2017-04-07T07:15:53.059Z,38.20
2017-04-07T07:16:51.641Z,37.80
2017-04-07T07:18:48.564Z,38.10
2017-04-07T07:19:47.123Z,37.50
2017-04-07T07:22:42.567Z,37.90
2017-04-07T07:25:38.540Z,37.80
2017-04-07T07:26:36.804Z,38.10
2017-04-07T07:27:34.636Z,37.30
2017-04-07T07:28:32.459Z,37.20
2017-04-07T07:29:31.133Z,37.30
2017-04-07T07:30:29.337Z,37.20
2017-04-07T07:31:28.353Z,37.60
2017-04-07T07:32:26.785Z,37.70
2017-04-07T07:33:24.689Z,37.20
2017-04-07T07:35:21.588Z,37.70
2017-04-07T07:36:20.881Z,37.30
2017-04-07T07:38:18.005Z,37.10
2017-04-07T07:39:16.202Z,37.00
2017-04-07T07:44:08.453Z,36.90
2017-04-07T07:45:07.397Z,36.90
2017-04-07T07:46:05.844Z,37.40
2017-04-07T07:49:01.333Z,37.10
2017-04-07T07:50:00.712Z,37.70
2017-04-07T07:50:59.652Z,37.70
2017-04-07T07:51:57.852Z,37.70
2017-04-07T07:52:56.811Z,38.30
2017-04-07T07:53:55.383Z,37.80
2017-04-07T07:55:52.225Z,37.90
2017-04-07T07:56:50.481Z,38.20
2017-04-07T07:57:49.061Z,38.00
2017-04-07T07:58:47.297Z,38.50
2017-04-07T08:00:44.011Z,37.70
2017-04-07T08:01:42.960Z,37.80
2017-04-07T08:02:41.161Z,38.50
2017-04-07T08:03:40.156Z,38.60
2017-04-07T08:04:38.379Z,39.40
2017-04-07T08:05:37.240Z,38.70
2017-04-07T08:06:35.443Z,39.10
2017-04-07T08:07:34.397Z,38.90
2017-04-07T08:08:32.607Z,38.20
2017-04-07T08:09:31.172Z,38.40
2017-04-07T08:10:29.789Z,38.20
2017-04-07T08:11:27.997Z,39.00
2017-04-07T08:12:26.592Z,39.10
2017-04-07T08:13:24.796Z,39.60
2017-04-07T08:14:23.037Z,39.40
2017-04-07T08:15:21.240Z,39.50
2017-04-07T08:16:19.477Z,39.10
2017-04-07T08:17:17.321Z,39.20
2017-04-07T08:18:15.775Z,40.00
2017-04-07T08:21:11.577Z,39.40
2017-04-07T08:22:10.569Z,39.20
2017-04-07T08:24:07.009Z,39.00
2017-04-07T08:28:02.789Z,39.50
2017-04-07T08:29:01.793Z,39.40
2017-04-07T08:30:58.563Z,40.30
2017-04-07T08:31:57.147Z,40.20
2017-04-07T08:32:55.819Z,40.00
2017-04-07T08:34:53.198Z,40.70
2017-04-07T08:40:45.797Z,41.70
2017-04-07T08:42:43.209Z,42.90
2017-04-07T08:43:42.190Z,42.20
2017-04-07T08:44:40.448Z,42.70
2017-04-07T08:48:34.824Z,41.40
2017-04-07T08:50:31.274Z,41.40
2017-04-07T08:51:29.861Z,41.40
2017-04-07T08:52:28.034Z,41.50
2017-04-07T08:53:26.344Z,41.80
2017-04-07T08:54:24.545Z,41.30
2017-04-07T08:55:23.480Z,41.30
2017-04-07T08:58:18.993Z,41.60
2017-04-07T08:59:17.256Z,41.20
2017-04-07T09:01:14.463Z,41.50
2017-04-07T09:03:10.997Z,41.10
2017-04-07T09:04:09.976Z,41.10
2017-04-07T09:05:08.228Z,41.40
2017-04-07T09:09:02.676Z,41.20
2017-04-07T09:10:59.527Z,40.70
2017-04-07T09:11:58.159Z,41.20
2017-04-07T09:15:52.123Z,41.00
2017-04-07T09:18:47.733Z,40.90
2017-04-07T09:21:43.416Z,40.40
2017-04-07T09:22:41.772Z,40.80
2017-04-07T09:23:39.967Z,40.80
2017-04-07T09:24:38.180Z,40.80
2017-04-07T09:25:36.000Z,40.30
2017-04-07T09:26:34.233Z,40.80
2017-04-07T09:27:32.428Z,40.80
2017-04-07T09:29:29.079Z,40.30
2017-04-07T09:31:25.897Z,40.70
2017-04-07T09:32:24.817Z,40.70
2017-04-07T09:33:22.700Z,40.40
2017-04-07T09:34:22.075Z,40.30
2017-04-07T09:35:20.283Z,40.80
2017-04-07T09:36:18.847Z,40.30
2017-04-07T09:37:17.417Z,40.80
2017-04-07T09:38:15.631Z,40.80
2017-04-07T09:40:12.687Z,40.60
2017-04-07T09:45:05.573Z,40.50
2017-04-07T09:47:02.492Z,40.60
2017-04-07T09:51:55.277Z,40.00
2017-04-07T09:52:53.540Z,40.40
2017-04-07T09:53:51.812Z,40.40
2017-04-07T09:55:48.720Z,39.90
2017-04-07T09:57:45.864Z,40.20
2017-04-07T09:59:42.793Z,39.60
2017-04-07T10:03:36.941Z,40.00
2017-04-07T10:05:33.761Z,39.60
2017-04-07T10:07:31.284Z,39.80
2017-04-07T10:08:29.484Z,39.90
2017-04-07T10:09:27.681Z,39.70
2017-04-07T10:10:25.765Z,39.40
2017-04-07T10:12:22.503Z,39.70
2017-04-07T10:13:20.723Z,39.50
2017-04-07T10:15:17.506Z,39.00
2017-04-07T10:16:15.715Z,39.00
2017-04-07T10:17:14.678Z,38.50
2017-04-07T10:18:13.253Z,38.50
2017-04-07T10:19:12.223Z,39.30
2017-04-07T10:20:10.045Z,38.50
2017-04-07T10:23:05.881Z,39.00
2017-04-07T10:24:04.109Z,39.20
2017-04-07T10:25:02.331Z,39.10
2017-04-07T10:28:56.512Z,39.20
2017-04-07T10:29:55.088Z,39.20
2017-04-07T10:30:53.304Z,39.20
2017-04-07T10:31:51.495Z,38.90
2017-04-07T10:33:49.097Z,38.80
2017-04-07T10:35:45.963Z,39.30
2017-04-07T10:38:42.095Z,39.20
2017-04-07T10:41:37.707Z,39.40
2017-04-07T10:44:32.715Z,38.90
2017-04-07T10:45:30.989Z,39.20
2017-04-07T10:47:28.027Z,38.80
2017-04-07T10:48:27.972Z,38.80
2017-04-07T10:49:26.208Z,39.20
2017-04-07T10:50:25.189Z,38.80
2017-04-07T10:51:23.425Z,39.20
2017-04-07T10:52:22.454Z,38.80
2017-04-07T10:53:21.719Z,39.20
2017-04-07T10:54:19.632Z,38.80
2017-04-07T10:55:18.080Z,39.20
2017-04-07T10:56:16.316Z,39.20
2017-04-07T10:57:14.508Z,38.80
2017-04-07T10:59:10.992Z,38.80
2017-04-07T11:01:07.747Z,38.80
2017-04-07T11:02:06.693Z,38.90
2017-04-07T11:03:05.261Z,38.80
2017-04-07T11:05:02.068Z,38.70
2017-04-07T11:06:00.296Z,38.70
2017-04-07T11:06:59.231Z,39.10
2017-04-07T11:07:58.167Z,38.70
2017-04-07T11:09:54.596Z,38.70
2017-04-07T11:10:53.719Z,39.10
2017-04-07T11:12:51.049Z,38.80
2017-04-07T11:13:49.244Z,39.30
2017-04-07T11:14:47.439Z,39.20
2017-04-07T11:15:45.332Z,38.90
2017-04-07T11:16:43.595Z,39.40
2017-04-07T11:17:42.193Z,39.00
2017-04-07T11:18:40.388Z,39.40
2017-04-07T11:19:38.961Z,39.00
2017-04-07T11:21:35.833Z,39.40
2017-04-07T11:27:27.881Z,39.10
2017-04-07T11:28:26.815Z,39.40
2017-04-07T11:29:24.920Z,39.00
2017-04-07T11:30:22.762Z,39.10
2017-04-07T11:31:20.960Z,39.50
2017-04-07T11:32:20.241Z,39.00
2017-04-07T11:35:15.525Z,39.10
2017-04-07T11:36:14.459Z,39.10
2017-04-07T11:38:11.249Z,39.60
2017-04-07T11:39:09.453Z,39.60
2017-04-07T11:40:07.312Z,39.10
2017-04-07T11:41:05.205Z,39.10
2017-04-07T11:42:04.149Z,39.10
2017-04-07T11:43:02.756Z,39.10
2017-04-07T11:44:00.951Z,39.60
2017-04-07T11:44:59.161Z,39.60
2017-04-07T11:47:55.085Z,39.50
2017-04-07T11:48:53.653Z,39.10
2017-04-07T11:49:51.831Z,39.10
2017-04-07T11:50:50.033Z,39.60
2017-04-07T11:52:46.839Z,39.60
2017-04-07T11:54:43.344Z,39.20
2017-04-07T11:56:40.144Z,39.60
2017-04-07T11:57:39.089Z,39.20
2017-04-07T11:58:37.315Z,39.60
2017-04-07T11:59:35.512Z,39.60
2017-04-07T12:00:33.616Z,39.20
2017-04-07T12:01:31.807Z,39.60
2017-04-07T12:04:27.931Z,39.70
2017-04-07T12:06:24.400Z,39.30
2017-04-07T12:07:23.160Z,39.30
2017-04-07T12:08:22.164Z,39.70
2017-04-07T12:09:20.739Z,39.20
2017-04-07T12:10:18.968Z,40.20
2017-04-07T12:12:15.796Z,39.70
2017-04-07T12:14:14.303Z,39.30
2017-04-07T12:16:11.453Z,39.20
2017-04-07T12:17:10.665Z,39.60
2017-04-07T12:21:04.652Z,39.70
2017-04-07T12:22:02.871Z,39.70
2017-04-07T12:23:01.511Z,39.30
2017-04-07T12:26:55.619Z,39.30
2017-04-07T12:27:54.529Z,39.80
2017-04-07T12:28:53.547Z,39.70
2017-04-07T12:29:52.545Z,39.30
2017-04-07T12:31:49.475Z,39.30
2017-04-07T12:32:47.679Z,39.70
2017-04-07T12:33:46.260Z,39.30
2017-04-07T12:36:41.763Z,39.80
2017-04-07T12:37:39.970Z,39.40
2017-04-07T12:38:38.907Z,39.40
2017-04-07T12:39:37.880Z,39.40
2017-04-07T12:40:36.105Z,39.80
2017-04-07T12:41:35.040Z,39.30
2017-04-07T12:42:33.232Z,39.70
2017-04-07T12:43:31.541Z,39.80
2017-04-07T12:44:30.117Z,39.40
2017-04-07T12:46:27.774Z,39.60
2017-04-07T12:47:26.041Z,40.00
2017-04-07T12:48:24.168Z,40.20
2017-04-07T12:50:20.989Z,41.30
2017-04-07T12:51:19.593Z,40.60
2017-04-07T12:52:17.421Z,40.70
2017-04-07T12:54:14.640Z,41.00
2017-04-07T12:55:12.828Z,41.30
2017-04-07T12:56:11.405Z,40.70
2017-04-07T12:59:07.129Z,41.00
2017-04-07T13:00:05.701Z,40.90
2017-04-07T13:02:02.790Z,40.90
2017-04-07T13:04:58.566Z,40.50
2017-04-07T13:06:55.037Z,40.50
2017-04-07T13:07:54.045Z,40.80
2017-04-07T13:08:52.281Z,40.80
2017-04-07T13:09:51.288Z,40.90
2017-04-07T13:10:49.480Z,40.90
2017-04-07T13:11:48.114Z,41.00
2017-04-07T13:13:44.860Z,41.00
2017-04-07T13:14:42.715Z,40.50
2017-04-07T13:16:39.556Z,41.00
2017-04-07T13:17:37.800Z,41.50
2017-04-07T13:18:37.059Z,40.70
2017-04-07T13:19:35.533Z,41.20
2017-04-07T13:21:33.415Z,40.80
2017-04-07T13:22:31.625Z,41.40
2017-04-07T13:23:30.165Z,41.30
2017-04-07T13:24:29.119Z,41.50
2017-04-07T13:25:27.460Z,41.50
2017-04-07T13:26:25.733Z,41.20
2017-04-07T13:27:23.927Z,41.60
2017-04-07T13:28:22.124Z,41.60
2017-04-07T13:30:19.305Z,41.30
2017-04-07T13:31:18.241Z,41.40
2017-04-07T13:32:17.204Z,41.20
2017-04-07T13:33:15.413Z,41.30
2017-04-07T13:34:14.361Z,40.90
2017-04-07T13:35:12.565Z,41.30
2017-04-07T13:38:07.688Z,41.30
2017-04-07T13:39:06.624Z,41.50
2017-04-07T13:40:05.632Z,41.80
2017-04-07T13:41:04.844Z,41.30
2017-04-07T13:42:03.105Z,41.70
2017-04-07T13:43:00.923Z,41.30
2017-04-07T13:44:00.135Z,41.70
2017-04-07T13:44:58.388Z,41.90
2017-04-07T13:46:55.084Z,41.40
2017-04-07T13:47:53.707Z,41.30
2017-04-07T13:48:51.926Z,41.40
2017-04-07T13:52:46.004Z,42.30
2017-04-07T13:53:44.200Z,42.30
2017-04-07T13:54:43.048Z,42.10
2017-04-07T14:03:30.649Z,41.50
2017-04-07T14:04:29.221Z,41.50
2017-04-07T14:07:24.647Z,41.40
2017-04-07T14:09:22.238Z,41.60
2017-04-07T14:10:21.188Z,41.40
2017-04-07T14:12:18.506Z,41.20
2017-04-07T14:14:15.292Z,41.10
2017-04-07T14:15:14.232Z,41.10
2017-04-07T14:16:13.545Z,41.00
2017-04-07T14:17:11.389Z,41.00
2017-04-07T14:19:08.629Z,40.90
2017-04-07T14:20:07.200Z,41.00
2017-04-07T14:22:04.689Z,41.10
2017-04-07T14:24:01.051Z,41.10
2017-04-07T14:25:00.025Z,41.10
2017-04-07T14:25:59.220Z,41.00
2017-04-07T14:28:55.524Z,40.80
2017-04-07T14:31:52.737Z,41.30
2017-04-07T14:32:51.307Z,41.50
2017-04-07T14:33:49.505Z,41.30
2017-04-07T14:41:38.617Z,40.40
2017-04-07T14:47:29.829Z,40.60
2017-04-07T14:56:17.532Z,40.20
2017-04-07T14:57:16.092Z,40.30
2017-04-07T14:58:14.657Z,40.40
2017-04-07T14:59:12.477Z,40.20
2017-04-07T15:01:08.933Z,40.10
2017-04-07T15:05:03.522Z,39.80
2017-04-07T15:06:02.902Z,39.80
2017-04-07T15:07:01.056Z,40.10
2017-04-07T15:10:55.344Z,40.10
2017-04-07T15:11:53.945Z,40.00
2017-04-07T15:16:46.661Z,39.40
2017-04-07T15:18:43.771Z,39.70
2017-04-07T15:19:41.976Z,39.90
2017-04-07T15:20:40.548Z,40.10
2017-04-07T15:21:39.493Z,40.50
2017-04-07T15:22:37.703Z,40.10
2017-04-07T15:23:36.335Z,40.50
2017-04-07T15:24:34.805Z,40.60
2017-04-07T15:27:30.215Z,40.90
2017-04-07T15:29:27.188Z,42.10
2017-04-07T15:30:26.377Z,41.10
2017-04-07T15:32:23.107Z,40.70
2017-04-07T15:34:19.939Z,42.00
2017-04-07T15:35:18.832Z,41.00
2017-04-07T15:38:14.633Z,40.90
2017-04-07T15:41:10.085Z,41.30
2017-04-07T15:44:05.478Z,41.40
2017-04-07T15:48:00.219Z,41.10
2017-04-07T15:48:58.040Z,41.10
2017-04-07T15:49:56.985Z,41.30
2017-04-07T15:50:54.817Z,41.50
2017-04-07T15:52:52.057Z,41.60
2017-04-07T15:56:47.148Z,41.90
2017-04-07T15:57:45.020Z,41.80
2017-04-07T15:59:41.821Z,42.30
2017-04-07T16:03:36.931Z,42.00
2017-04-07T16:04:35.153Z,42.00
2017-04-07T16:05:33.352Z,42.40
2017-04-07T16:06:31.543Z,42.30
2017-04-07T16:08:28.423Z,42.40
2017-04-07T16:09:28.085Z,42.10
2017-04-07T16:10:27.004Z,42.10
2017-04-07T16:13:22.000Z,42.20
2017-04-07T16:14:20.284Z,42.70
2017-04-07T16:16:17.835Z,46.80
2017-04-07T16:17:16.423Z,43.10
2017-04-07T16:18:15.845Z,43.40
2017-04-07T16:19:14.050Z,44.30
2017-04-07T16:21:11.584Z,43.70
2017-04-07T16:25:06.284Z,43.90
2017-04-07T16:26:04.849Z,43.80
2017-04-07T16:27:03.725Z,43.80
2017-04-07T16:28:02.325Z,44.00
2017-04-07T16:29:59.804Z,44.30
2017-04-07T16:30:58.004Z,44.40
2017-04-07T16:32:54.862Z,45.20
2017-04-07T16:33:53.124Z,44.90
2017-04-07T16:36:48.644Z,44.70
2017-04-07T16:37:46.849Z,44.90
2017-04-07T16:38:45.879Z,45.20
2017-04-07T16:39:44.448Z,45.00
2017-04-07T16:40:42.653Z,45.50
2017-04-07T16:41:40.485Z,45.20
2017-04-07T16:44:36.004Z,45.30
2017-04-07T16:45:33.864Z,45.10
2017-04-07T16:46:32.055Z,45.10
2017-04-07T16:47:30.623Z,44.90
2017-04-07T16:51:25.092Z,45.50
2017-04-07T16:52:23.300Z,45.40
2017-04-07T16:53:22.085Z,45.00
2017-04-07T16:55:19.475Z,44.90
2017-04-07T16:56:17.752Z,45.40
2017-04-07T16:58:14.607Z,45.40
2017-04-07T16:59:12.808Z,45.50
2017-04-07T17:01:09.969Z,45.20
2017-04-07T17:02:08.845Z,45.00
2017-04-07T17:04:07.153Z,44.70
2017-04-07T17:05:05.393Z,44.60
2017-04-07T17:07:02.181Z,44.10
2017-04-07T17:08:00.789Z,44.40
2017-04-07T17:09:00.087Z,43.80
2017-04-07T17:10:57.348Z,44.30
2017-04-07T17:11:56.749Z,44.20
2017-04-07T17:12:54.949Z,44.90
2017-04-07T17:13:53.981Z,45.00
2017-04-07T17:14:52.318Z,44.90
2017-04-07T17:15:50.512Z,44.90
2017-04-07T17:18:45.997Z,45.10
2017-04-07T17:19:44.585Z,44.70
2017-04-07T17:21:42.170Z,45.00
2017-04-07T17:22:40.427Z,45.10
2017-04-07T17:23:38.714Z,45.70
2017-04-07T17:24:36.909Z,44.40
2017-04-07T17:25:35.555Z,44.90
2017-04-07T17:26:33.837Z,45.10
2017-04-07T17:27:32.317Z,45.50
2017-04-07T17:28:30.817Z,45.40
2017-04-07T17:29:29.752Z,45.00
2017-04-07T17:30:28.042Z,45.10
2017-04-07T17:32:24.951Z,45.00
2017-04-07T17:34:21.852Z,44.90
2017-04-07T17:35:20.883Z,44.50
2017-04-07T17:38:17.740Z,45.10
2017-04-07T17:40:14.621Z,45.20
2017-04-07T17:43:10.164Z,44.80
2017-04-07T17:47:03.949Z,44.90
2017-04-07T17:49:01.440Z,45.60
2017-04-07T17:50:00.423Z,48.20
2017-04-07T17:50:58.619Z,46.30
2017-04-07T17:51:56.920Z,46.10
2017-04-07T17:52:55.287Z,46.60
2017-04-07T17:53:53.552Z,46.70
2017-04-07T17:54:51.395Z,44.90
2017-04-07T17:55:50.032Z,45.00
2017-04-07T17:56:48.229Z,45.40
2017-04-07T17:57:47.335Z,45.00
2017-04-07T17:59:44.863Z,45.00
2017-04-07T18:00:43.478Z,45.10
2017-04-07T18:03:39.281Z,45.00
2017-04-07T18:09:31.200Z,44.80
2017-04-07T18:14:23.965Z,44.70
2017-04-07T18:16:20.613Z,44.90
2017-04-07T18:17:18.827Z,46.30
2017-04-07T18:18:17.786Z,45.50
2017-04-07T18:19:16.088Z,46.10
2017-04-07T18:20:14.288Z,45.60
2017-04-07T18:21:13.118Z,45.70
2017-04-07T18:23:10.139Z,45.60
2017-04-07T18:24:09.076Z,46.20
2017-04-07T18:25:07.699Z,45.70
2017-04-07T18:26:05.958Z,46.10
2017-04-07T18:27:04.573Z,45.70
2017-04-07T18:30:00.502Z,46.40
2017-04-07T18:32:56.803Z,46.00
2017-04-07T18:33:55.736Z,45.60
2017-04-07T18:35:52.632Z,45.60
2017-04-07T18:37:49.419Z,46.10
2017-04-07T18:41:43.970Z,45.90
2017-04-07T18:42:42.197Z,46.00
2017-04-07T18:43:40.397Z,46.50
2017-04-07T18:44:39.516Z,46.60